createdAt,value
2019-05-07T00:00:43.877Z,6.50
2019-05-07T00:03:13.210Z,6.50
2019-05-07T00:05:42.891Z,6.50
2019-05-07T00:08:12.269Z,6.50
2019-05-07T00:10:42.459Z,6.50
2019-05-07T00:13:12.913Z,6.60
2019-05-07T00:15:42.253Z,6.70
2019-05-07T00:18:12.686Z,6.70
2019-05-07T00:20:42.467Z,6.60
2019-05-07T00:23:12.412Z,6.80
2019-05-07T00:25:42.328Z,6.80
2019-05-07T00:28:12.202Z,6.80
2019-05-07T00:30:42.439Z,6.80
2019-05-07T00:33:13.179Z,6.60
2019-05-07T00:35:47.153Z,6.60
2019-05-07T00:38:18.065Z,6.50
2019-05-07T00:40:48.994Z,6.40
2019-05-07T00:43:19.906Z,6.30
2019-05-07T00:45:52.736Z,6.30
2019-05-07T00:48:23.461Z,6.30
2019-05-07T00:50:54.565Z,6.40
2019-05-07T00:53:23.881Z,6.30
2019-05-07T00:55:53.173Z,6.20
2019-05-07T00:58:26.481Z,6.30
2019-05-07T01:00:53.432Z,6.20
2019-05-07T01:03:22.693Z,6.10
2019-05-07T01:05:52.681Z,6.10
2019-05-07T01:08:22.663Z,6.10
2019-05-07T01:10:53.136Z,6.00
2019-05-07T01:13:23.352Z,6.00
2019-05-07T01:15:53.392Z,6.00
2019-05-07T01:18:23.412Z,6.00
2019-05-07T01:20:54.082Z,5.90
2019-05-07T01:23:23.537Z,5.90
2019-05-07T01:25:52.920Z,5.90
2019-05-07T01:28:22.539Z,5.90
2019-05-07T01:30:52.750Z,5.90
2019-05-07T01:33:39.151Z,5.90
2019-05-07T01:36:13.307Z,5.90
2019-05-07T01:38:42.819Z,5.90
2019-05-07T01:41:12.582Z,5.80
2019-05-07T01:43:42.967Z,5.80
2019-05-07T01:46:12.466Z,5.80
2019-05-07T01:48:42.921Z,5.80
2019-05-07T01:51:13.330Z,5.90
2019-05-07T01:53:43.088Z,5.90
2019-05-07T01:56:12.572Z,5.90
2019-05-07T01:58:42.511Z,5.80
2019-05-07T02:01:13.065Z,5.80
2019-05-07T02:03:47.152Z,5.60
2019-05-07T02:06:27.090Z,5.50
2019-05-07T02:09:13.096Z,5.40
2019-05-07T02:11:46.890Z,5.40
2019-05-07T02:14:16.153Z,5.20
2019-05-07T02:16:45.423Z,5.10
2019-05-07T02:19:14.698Z,5.10
2019-05-07T02:21:43.951Z,5.10
2019-05-07T02:24:13.258Z,5.20
2019-05-07T02:26:42.831Z,5.20
2019-05-07T02:29:12.365Z,5.20
2019-05-07T02:31:44.253Z,5.30
2019-05-07T02:34:14.175Z,5.20
2019-05-07T02:36:44.613Z,5.00
2019-05-07T02:39:15.544Z,5.10
2019-05-07T02:41:44.894Z,5.20
2019-05-07T02:44:14.385Z,5.20
2019-05-07T02:46:45.418Z,5.20
2019-05-07T02:49:28.281Z,5.20
2019-05-07T02:52:04.137Z,5.20
2019-05-07T02:54:53.938Z,5.30
2019-05-07T02:57:24.015Z,5.30
2019-05-07T02:59:54.755Z,5.30
2019-05-07T03:02:24.999Z,5.30
2019-05-07T03:04:54.258Z,5.30
2019-05-07T03:07:24.261Z,5.20
2019-05-07T03:09:54.038Z,5.20
2019-05-07T03:12:23.937Z,5.10
2019-05-07T03:14:53.880Z,5.20
2019-05-07T03:17:24.535Z,5.10
2019-05-07T03:19:55.570Z,5.20
2019-05-07T03:22:24.865Z,5.20
2019-05-07T03:24:55.822Z,5.10
2019-05-07T03:27:25.106Z,5.10
2019-05-07T03:30:04.359Z,5.00
2019-05-07T03:32:38.051Z,4.90
2019-05-07T03:35:16.188Z,4.90
2019-05-07T03:37:45.828Z,4.90
2019-05-07T03:40:15.339Z,4.80
2019-05-07T03:42:44.680Z,4.70
2019-05-07T03:45:18.120Z,4.80
2019-05-07T03:47:54.185Z,4.60
2019-05-07T03:50:23.302Z,4.50
2019-05-07T03:52:54.316Z,4.50
2019-05-07T03:55:23.881Z,4.60
2019-05-07T03:57:53.159Z,4.80
2019-05-07T04:00:23.893Z,4.80
2019-05-07T04:02:54.965Z,4.90
2019-05-07T04:05:24.214Z,4.90
2019-05-07T04:07:54.121Z,4.80
2019-05-07T04:10:23.561Z,4.80
2019-05-07T04:12:53.319Z,4.80
2019-05-07T04:15:23.479Z,4.80
2019-05-07T04:17:54.181Z,4.80
2019-05-07T04:20:24.118Z,4.90
2019-05-07T04:22:53.797Z,4.90
2019-05-07T04:25:27.650Z,4.80
2019-05-07T04:28:03.740Z,4.90
2019-05-07T04:30:33.306Z,4.90
2019-05-07T04:33:04.306Z,5.00
2019-05-07T04:35:35.241Z,5.00
2019-05-07T04:38:06.991Z,4.90
2019-05-07T04:40:35.477Z,4.90
2019-05-07T04:43:04.742Z,4.90
2019-05-07T04:45:34.108Z,4.80
2019-05-07T04:48:03.463Z,4.70
2019-05-07T04:50:42.573Z,4.70
2019-05-07T04:53:05.381Z,4.70
2019-05-07T04:55:34.660Z,4.80
2019-05-07T04:58:08.727Z,4.80
2019-05-07T05:00:35.159Z,5.00
2019-05-07T05:03:14.622Z,5.20
2019-05-07T05:05:43.899Z,5.10
2019-05-07T05:08:13.542Z,5.10
2019-05-07T05:10:43.528Z,5.10
2019-05-07T05:13:13.310Z,5.20
2019-05-07T05:15:43.566Z,5.30
2019-05-07T05:18:13.004Z,5.30
2019-05-07T05:20:56.161Z,5.30
2019-05-07T05:23:32.810Z,5.30
2019-05-07T05:26:02.093Z,5.30
2019-05-07T05:28:32.366Z,5.40
2019-05-07T05:31:03.486Z,5.50
2019-05-07T05:33:32.785Z,5.60
2019-05-07T05:36:03.067Z,5.80
2019-05-07T05:38:33.104Z,5.90
2019-05-07T05:41:02.882Z,5.90
2019-05-07T05:43:33.863Z,5.80
2019-05-07T05:46:07.282Z,5.90
2019-05-07T05:48:36.544Z,5.90
2019-05-07T05:51:07.453Z,6.00
2019-05-07T05:53:43.180Z,6.10
2019-05-07T05:56:13.549Z,6.20
2019-05-07T05:58:47.589Z,6.20
2019-05-07T06:01:27.778Z,6.40
2019-05-07T06:04:14.980Z,6.50
2019-05-07T06:06:45.889Z,6.50
2019-05-07T06:09:28.706Z,6.60
2019-05-07T06:12:02.922Z,6.80
2019-05-07T06:14:33.938Z,7.00
2019-05-07T06:17:22.420Z,7.10
2019-05-07T06:19:59.515Z,7.10
2019-05-07T06:22:48.564Z,7.20
2019-05-07T06:25:24.617Z,6.80
2019-05-07T06:27:53.490Z,7.00
2019-05-07T06:30:22.918Z,7.20
2019-05-07T06:32:52.442Z,7.20
2019-05-07T06:35:22.987Z,7.40
2019-05-07T06:37:52.589Z,7.80
2019-05-07T06:40:27.581Z,8.00
2019-05-07T06:43:06.025Z,8.20
2019-05-07T06:45:43.753Z,8.30
2019-05-07T06:48:13.026Z,8.40
2019-05-07T06:50:43.945Z,8.30
2019-05-07T06:53:13.222Z,8.50
2019-05-07T06:55:42.838Z,8.70
2019-05-07T06:58:12.499Z,8.80
2019-05-07T07:00:43.408Z,8.90
2019-05-07T07:03:16.986Z,9.10
2019-05-07T07:05:47.953Z,9.30
2019-05-07T07:08:18.871Z,9.40
2019-05-07T07:11:02.641Z,9.30
2019-05-07T07:13:32.454Z,9.40
2019-05-07T07:16:02.010Z,9.60
2019-05-07T07:18:32.365Z,9.70
2019-05-07T07:21:02.536Z,9.90
2019-05-07T07:23:32.519Z,9.90
2019-05-07T07:26:03.246Z,10.00
2019-05-07T07:28:33.849Z,10.10
2019-05-07T07:31:13.433Z,10.20
2019-05-07T07:33:44.359Z,10.30
2019-05-07T07:36:13.638Z,10.20
2019-05-07T07:38:42.909Z,10.40
2019-05-07T07:41:32.505Z,10.80
2019-05-07T07:44:02.117Z,10.90
2019-05-07T07:46:32.984Z,10.90
2019-05-07T07:49:10.623Z,11.00
2019-05-07T07:51:41.550Z,11.20
2019-05-07T07:54:05.481Z,11.40
2019-05-07T07:56:48.872Z,11.40
2019-05-07T07:59:24.938Z,11.60
2019-05-07T08:01:55.845Z,11.80
2019-05-07T08:04:25.158Z,11.50
2019-05-07T08:07:03.317Z,11.70
2019-05-07T08:09:35.109Z,11.90
2019-05-07T08:12:06.162Z,11.80
2019-05-07T08:14:36.026Z,12.00
2019-05-07T08:17:06.993Z,12.10
2019-05-07T08:19:37.338Z,12.20
2019-05-07T08:22:06.673Z,12.50
2019-05-07T08:24:35.949Z,12.50
2019-05-07T08:27:05.221Z,12.50
2019-05-07T08:29:34.485Z,12.50
2019-05-07T08:32:22.316Z,12.60
2019-05-07T08:35:05.140Z,12.30
2019-05-07T08:37:34.405Z,12.20
2019-05-07T08:40:05.126Z,12.30
2019-05-07T08:42:34.392Z,12.30
2019-05-07T08:45:05.468Z,12.50
2019-05-07T08:47:36.362Z,12.70
2019-05-07T08:50:06.889Z,13.00
2019-05-07T08:52:36.145Z,13.10
2019-05-07T08:55:07.252Z,13.30
2019-05-07T08:57:36.677Z,13.40
2019-05-07T09:00:07.457Z,13.40
2019-05-07T09:02:36.725Z,13.80
2019-05-07T09:05:09.344Z,13.70
2019-05-07T09:07:39.843Z,13.70
2019-05-07T09:10:12.709Z,13.80
2019-05-07T09:12:42.980Z,13.70
2019-05-07T09:15:13.609Z,13.50
2019-05-07T09:17:42.869Z,13.70
2019-05-07T09:20:12.663Z,13.80
2019-05-07T09:22:42.762Z,13.90
2019-05-07T09:25:13.138Z,14.30
2019-05-07T09:27:44.162Z,14.50
2019-05-07T09:30:18.316Z,14.70
2019-05-07T09:32:58.116Z,14.20
2019-05-07T09:35:42.409Z,13.90
2019-05-07T09:38:12.947Z,14.30
2019-05-07T09:40:42.285Z,14.30
2019-05-07T09:43:11.859Z,14.50
2019-05-07T09:45:42.363Z,14.40
2019-05-07T09:48:12.810Z,14.70
2019-05-07T09:50:42.879Z,15.00
2019-05-07T09:53:12.740Z,15.20
2019-05-07T09:55:42.630Z,15.40
2019-05-07T09:58:12.617Z,15.80
2019-05-07T10:00:42.585Z,15.80
2019-05-07T10:03:12.918Z,15.70
2019-05-07T10:05:42.956Z,15.60
2019-05-07T10:08:13.001Z,15.90
2019-05-07T10:10:43.948Z,15.80
2019-05-07T10:13:14.850Z,15.90
2019-05-07T10:15:44.258Z,16.20
2019-05-07T10:18:14.977Z,16.50
2019-05-07T10:20:44.246Z,16.70
2019-05-07T10:23:19.615Z,16.70
2019-05-07T10:25:49.916Z,16.80
2019-05-07T10:28:19.777Z,16.80
2019-05-07T10:30:49.133Z,16.60
2019-05-07T10:33:18.484Z,16.80
2019-05-07T10:35:47.750Z,17.20
2019-05-07T10:38:17.035Z,17.70
2019-05-07T10:40:46.434Z,17.80
2019-05-07T10:43:15.789Z,17.90
2019-05-07T10:46:02.890Z,18.00
2019-05-07T10:48:33.806Z,18.30
2019-05-07T10:51:04.550Z,17.60
2019-05-07T10:53:34.188Z,17.80
2019-05-07T10:56:03.455Z,17.90
2019-05-07T10:58:32.742Z,18.00
2019-05-07T11:01:02.920Z,18.10
2019-05-07T11:03:32.669Z,18.50
2019-05-07T11:06:01.983Z,18.20
2019-05-07T11:08:32.890Z,18.30
2019-05-07T11:11:02.948Z,18.30
2019-05-07T11:13:33.460Z,18.20
2019-05-07T11:16:07.295Z,18.40
2019-05-07T11:18:42.655Z,18.10
2019-05-07T11:21:12.190Z,18.60
2019-05-07T11:23:41.864Z,18.80
2019-05-07T11:26:11.791Z,19.20
2019-05-07T11:28:41.292Z,19.70
2019-05-07T11:31:12.339Z,19.70
2019-05-07T11:33:41.707Z,19.60
2019-05-07T11:36:11.094Z,19.90
2019-05-07T11:38:41.844Z,19.50
2019-05-07T11:41:12.760Z,19.30
2019-05-07T11:43:46.433Z,19.20
2019-05-07T11:46:17.592Z,19.10
2019-05-07T11:48:51.204Z,19.10
2019-05-07T11:51:39.893Z,19.40
2019-05-07T11:54:16.196Z,19.50
2019-05-07T11:56:45.562Z,19.20
2019-05-07T11:59:14.841Z,19.10
2019-05-07T12:01:52.742Z,17.20
2019-05-07T12:04:22.118Z,17.90
2019-05-07T12:06:52.085Z,18.60
2019-05-07T12:09:21.860Z,19.30
2019-05-07T12:11:52.077Z,19.80
2019-05-07T12:14:30.516Z,20.20
2019-05-07T12:16:52.434Z,20.30
2019-05-07T12:19:22.645Z,20.50
2019-05-07T12:21:52.675Z,20.50
2019-05-07T12:24:22.364Z,20.70
2019-05-07T12:26:52.292Z,20.00
2019-05-07T12:29:22.096Z,20.20
2019-05-07T12:31:55.638Z,20.40
2019-05-07T12:34:25.824Z,20.30
2019-05-07T12:36:55.100Z,19.50
2019-05-07T12:39:24.381Z,19.40
2019-05-07T12:41:53.674Z,19.20
2019-05-07T12:44:22.943Z,19.50
2019-05-07T12:46:52.554Z,19.30
2019-05-07T12:49:22.202Z,18.90
2019-05-07T12:52:08.552Z,19.40
2019-05-07T12:54:56.961Z,19.70
2019-05-07T12:57:26.233Z,20.00
2019-05-07T12:59:58.205Z,20.30
2019-05-07T13:02:41.061Z,20.30
2019-05-07T13:05:09.221Z,20.10
2019-05-07T13:07:41.786Z,20.30
2019-05-07T13:10:11.166Z,20.50
2019-05-07T13:12:41.987Z,20.50
2019-05-07T13:15:23.890Z,20.80
2019-05-07T13:17:42.386Z,20.10
2019-05-07T13:20:12.188Z,20.20
2019-05-07T13:22:42.699Z,20.40
2019-05-07T13:25:12.635Z,20.30
2019-05-07T13:27:42.925Z,20.30
2019-05-07T13:30:12.891Z,20.50
2019-05-07T13:32:45.053Z,20.50
2019-05-07T13:35:14.502Z,20.10
2019-05-07T13:37:48.666Z,19.90
2019-05-07T13:40:25.722Z,20.20
2019-05-07T13:42:59.633Z,19.60
2019-05-07T13:45:39.456Z,19.50
2019-05-07T13:48:16.509Z,19.90
2019-05-07T13:50:46.883Z,20.40
2019-05-07T13:53:16.294Z,20.60
2019-05-07T13:55:45.723Z,20.60
2019-05-07T13:58:15.050Z,20.30
2019-05-07T14:01:04.897Z,20.50
2019-05-07T14:03:33.827Z,20.30
2019-05-07T14:06:04.569Z,20.00
2019-05-07T14:08:35.676Z,19.60
2019-05-07T14:11:05.005Z,19.40
2019-05-07T14:13:34.349Z,19.50
2019-05-07T14:16:12.058Z,19.70
2019-05-07T14:18:41.630Z,19.70
2019-05-07T14:21:12.972Z,19.40
2019-05-07T14:23:42.778Z,19.60
2019-05-07T14:26:12.205Z,19.90
2019-05-07T14:28:42.312Z,19.60
2019-05-07T14:31:12.712Z,19.40
2019-05-07T14:33:43.625Z,19.60
2019-05-07T14:36:31.998Z,19.50
2019-05-07T14:39:02.445Z,20.10
2019-05-07T14:41:33.506Z,19.40
2019-05-07T14:44:04.961Z,19.70
2019-05-07T14:46:43.966Z,19.90
2019-05-07T14:49:05.198Z,19.80
2019-05-07T14:51:34.596Z,19.70
2019-05-07T14:54:04.002Z,19.60
2019-05-07T14:56:33.720Z,19.00
2019-05-07T14:59:03.070Z,18.80
2019-05-07T15:01:33.938Z,19.00
2019-05-07T15:04:03.550Z,19.40
2019-05-07T15:06:33.254Z,19.60
2019-05-07T15:09:02.566Z,19.50
2019-05-07T15:11:33.971Z,19.40
2019-05-07T15:14:03.318Z,19.40
2019-05-07T15:16:32.654Z,19.10
2019-05-07T15:19:02.309Z,19.20
2019-05-07T15:21:32.326Z,19.20
2019-05-07T15:24:02.618Z,18.90
2019-05-07T15:26:32.664Z,18.90
2019-05-07T15:29:05.709Z,18.80
2019-05-07T15:31:39.342Z,18.90
2019-05-07T15:34:08.886Z,19.10
2019-05-07T15:36:38.170Z,19.20
2019-05-07T15:39:07.944Z,19.50
2019-05-07T15:41:38.424Z,19.70
2019-05-07T15:44:07.697Z,19.50
2019-05-07T15:46:36.957Z,19.20
2019-05-07T15:49:06.238Z,19.30
2019-05-07T15:51:35.557Z,19.30
2019-05-07T15:54:04.893Z,19.40
2019-05-07T15:56:34.168Z,19.10
2019-05-07T15:59:03.455Z,18.90
2019-05-07T16:01:32.734Z,19.00
2019-05-07T16:04:02.778Z,19.00
2019-05-07T16:06:32.477Z,19.10
2019-05-07T16:09:04.634Z,18.30
2019-05-07T16:11:34.178Z,17.60
2019-05-07T16:14:05.169Z,17.60
2019-05-07T16:16:36.183Z,17.70
2019-05-07T16:19:11.896Z,17.80
2019-05-07T16:21:42.508Z,18.10
2019-05-07T16:24:12.236Z,18.40
2019-05-07T16:26:41.992Z,18.70
2019-05-07T16:29:13.203Z,18.80
2019-05-07T16:31:44.203Z,18.60
2019-05-07T16:34:13.301Z,18.50
2019-05-07T16:36:42.921Z,18.50
2019-05-07T16:39:12.294Z,18.50
2019-05-07T16:41:42.302Z,18.40
2019-05-07T16:44:12.320Z,18.40
2019-05-07T16:46:42.162Z,18.30
2019-05-07T16:49:12.332Z,18.20
2019-05-07T16:51:44.608Z,18.20
2019-05-07T16:54:12.599Z,18.20
2019-05-07T16:56:59.722Z,18.20
2019-05-07T16:59:29.120Z,17.80
2019-05-07T17:02:00.031Z,17.50
2019-05-07T17:04:29.312Z,17.60
2019-05-07T17:07:02.051Z,17.60
2019-05-07T17:09:32.235Z,17.10
2019-05-07T17:12:03.939Z,16.60
2019-05-07T17:14:33.198Z,16.30
2019-05-07T17:17:02.590Z,16.10
2019-05-07T17:19:32.068Z,16.50
2019-05-07T17:22:02.815Z,16.50
2019-05-07T17:24:32.966Z,16.30
2019-05-07T17:27:02.428Z,16.20
2019-05-07T17:29:32.197Z,16.40
2019-05-07T17:32:01.754Z,16.70
2019-05-07T17:34:31.033Z,16.70
2019-05-07T17:37:01.941Z,16.60
2019-05-07T17:39:32.146Z,16.40
2019-05-07T17:42:02.519Z,16.10
2019-05-07T17:44:33.255Z,15.90
2019-05-07T17:47:02.571Z,15.90
2019-05-07T17:49:32.382Z,15.80
2019-05-07T17:52:02.943Z,16.00
2019-05-07T17:54:32.479Z,16.20
2019-05-07T17:57:02.091Z,16.30
2019-05-07T17:59:32.124Z,16.50
2019-05-07T18:02:03.278Z,16.60
2019-05-07T18:04:47.473Z,16.50
2019-05-07T18:07:05.254Z,16.60
2019-05-07T18:09:34.662Z,16.60
2019-05-07T18:12:03.935Z,16.50
2019-05-07T18:14:33.213Z,16.50
2019-05-07T18:17:04.117Z,16.40
2019-05-07T18:19:33.394Z,16.40
2019-05-07T18:22:03.902Z,16.00
2019-05-07T18:24:33.165Z,15.50
2019-05-07T18:27:04.065Z,15.50
2019-05-07T18:29:33.345Z,15.70
2019-05-07T18:32:04.246Z,15.60
2019-05-07T18:34:33.693Z,15.40
2019-05-07T18:37:02.966Z,15.40
2019-05-07T18:39:32.566Z,15.50
2019-05-07T18:42:02.823Z,15.20
2019-05-07T18:44:33.232Z,15.20
2019-05-07T18:47:02.607Z,14.70
2019-05-07T18:49:31.980Z,14.30
2019-05-07T18:52:02.850Z,14.30
2019-05-07T18:54:33.441Z,14.50
2019-05-07T18:57:02.714Z,14.30
2019-05-07T18:59:33.798Z,14.20
2019-05-07T19:02:03.470Z,13.90
2019-05-07T19:04:32.909Z,13.90
2019-05-07T19:07:02.673Z,14.10
2019-05-07T19:09:32.181Z,14.30
2019-05-07T19:12:01.590Z,14.20
2019-05-07T19:14:33.125Z,14.20
2019-05-07T19:17:03.205Z,13.90
2019-05-07T19:19:32.853Z,13.90
2019-05-07T19:22:02.331Z,14.00
2019-05-07T19:24:44.268Z,14.00
2019-05-07T19:27:02.631Z,14.00
2019-05-07T19:29:32.602Z,14.00
2019-05-07T19:32:03.193Z,14.10
2019-05-07T19:34:32.645Z,14.10
2019-05-07T19:37:02.594Z,14.00
2019-05-07T19:39:32.925Z,13.90
2019-05-07T19:42:02.727Z,13.80
2019-05-07T19:44:32.034Z,13.80
2019-05-07T19:47:01.997Z,13.90
2019-05-07T19:49:32.484Z,13.80
2019-05-07T19:52:02.940Z,13.70
2019-05-07T19:54:32.536Z,13.60
2019-05-07T19:57:02.737Z,13.40
2019-05-07T19:59:32.708Z,13.30
2019-05-07T20:02:04.717Z,13.40
2019-05-07T20:04:34.005Z,13.40
2019-05-07T20:07:04.350Z,13.30
2019-05-07T20:09:35.291Z,13.20
2019-05-07T20:12:08.009Z,13.00
2019-05-07T20:14:36.610Z,13.10
2019-05-07T20:17:06.960Z,13.10
2019-05-07T20:19:36.230Z,13.00
2019-05-07T20:22:05.508Z,12.90
2019-05-07T20:24:34.782Z,12.80
2019-05-07T20:27:04.145Z,12.80
2019-05-07T20:29:33.401Z,12.80
2019-05-07T20:32:02.681Z,12.70
2019-05-07T20:34:32.937Z,12.70
2019-05-07T20:37:02.769Z,12.70
2019-05-07T20:39:32.364Z,12.80
2019-05-07T20:42:03.048Z,12.80
2019-05-07T20:44:32.673Z,12.70
2019-05-07T20:47:02.028Z,12.60
2019-05-07T20:49:32.006Z,12.50
2019-05-07T20:52:01.544Z,12.40
2019-05-07T20:54:32.626Z,12.30
2019-05-07T20:57:03.626Z,12.30
2019-05-07T20:59:32.971Z,12.30
2019-05-07T21:02:02.426Z,12.20
2019-05-07T21:04:32.978Z,12.20
2019-05-07T21:07:02.463Z,12.10
2019-05-07T21:09:32.993Z,12.00
2019-05-07T21:12:02.346Z,12.10
2019-05-07T21:14:32.449Z,12.00
2019-05-07T21:17:01.968Z,11.90
2019-05-07T21:19:33.094Z,12.00
2019-05-07T21:22:02.486Z,12.00
2019-05-07T21:24:33.050Z,11.90
2019-05-07T21:27:02.774Z,11.90
2019-05-07T21:29:32.648Z,11.80
2019-05-07T21:32:03.350Z,11.80
2019-05-07T21:34:32.803Z,11.80
2019-05-07T21:37:03.305Z,11.80
2019-05-07T21:39:33.125Z,11.70
2019-05-07T21:42:02.652Z,11.70
2019-05-07T21:44:32.994Z,11.60
2019-05-07T21:47:03.863Z,11.50
2019-05-07T21:49:33.323Z,11.30
2019-05-07T21:52:02.624Z,11.20
2019-05-07T21:54:33.546Z,11.20
2019-05-07T21:57:04.449Z,11.30
2019-05-07T21:59:38.122Z,11.30
2019-05-07T22:02:09.293Z,11.40
2019-05-07T22:04:38.642Z,11.40
2019-05-07T22:07:07.915Z,11.50
2019-05-07T22:09:37.215Z,11.40
2019-05-07T22:12:06.507Z,11.50
2019-05-07T22:14:35.811Z,11.60
2019-05-07T22:17:05.552Z,11.60
2019-05-07T22:19:34.839Z,11.40
2019-05-07T22:22:04.101Z,11.30
2019-05-07T22:24:33.390Z,11.30
2019-05-07T22:27:04.214Z,11.20
2019-05-07T22:29:33.700Z,11.40
2019-05-07T22:32:16.520Z,11.40
2019-05-07T22:34:47.444Z,11.60
2019-05-07T22:37:18.325Z,11.70
2019-05-07T22:39:49.224Z,11.70
2019-05-07T22:42:23.037Z,11.70
2019-05-07T22:44:53.879Z,11.70
2019-05-07T22:47:23.166Z,11.80
2019-05-07T22:49:53.616Z,11.80
2019-05-07T22:52:23.259Z,11.80
2019-05-07T22:54:52.535Z,11.90
2019-05-07T22:57:23.433Z,12.00
2019-05-07T22:59:52.711Z,11.80
2019-05-07T23:02:22.835Z,11.80
2019-05-07T23:04:52.233Z,11.90
2019-05-07T23:07:22.318Z,12.00
2019-05-07T23:09:52.238Z,11.90
2019-05-07T23:12:22.071Z,11.90
2019-05-07T23:14:53.664Z,11.70
2019-05-07T23:17:22.443Z,11.80
2019-05-07T23:19:52.990Z,11.80
2019-05-07T23:22:22.802Z,11.80
2019-05-07T23:24:52.188Z,11.80
2019-05-07T23:27:22.664Z,11.80
2019-05-07T23:29:52.921Z,11.80
2019-05-07T23:32:22.421Z,11.70
2019-05-07T23:34:52.762Z,11.60
2019-05-07T23:37:22.604Z,11.60
2019-05-07T23:39:53.563Z,11.60
2019-05-07T23:42:35.975Z,11.50
2019-05-07T23:45:02.159Z,11.50
2019-05-07T23:47:32.385Z,11.50
2019-05-07T23:50:02.266Z,11.50
2019-05-07T23:52:31.602Z,11.50
2019-05-07T23:55:02.866Z,11.30
2019-05-07T23:57:32.507Z,11.20
